createdAt,value
2018-05-29T00:00:14.390Z,1014.21
2018-05-29T00:00:54.957Z,1014.23
2018-05-29T00:01:35.512Z,1014.21
2018-05-29T00:02:16.063Z,1014.2
2018-05-29T00:02:56.616Z,1014.23
2018-05-29T00:03:37.174Z,1014.19
2018-05-29T00:04:17.731Z,1014.2
2018-05-29T00:04:58.301Z,1014.22
2018-05-29T00:05:38.889Z,1014.19
2018-05-29T00:06:19.481Z,1014.15
2018-05-29T00:07:00.084Z,1014.2
2018-05-29T00:07:40.668Z,1014.21
2018-05-29T00:08:21.233Z,1014.19
2018-05-29T00:09:01.809Z,1014.25
2018-05-29T00:09:42.367Z,1014.22
2018-05-29T00:10:22.934Z,1014.22
2018-05-29T00:11:03.524Z,1014.21
2018-05-29T00:11:44.080Z,1014.19
2018-05-29T00:12:24.636Z,1014.21
2018-05-29T00:13:05.195Z,1014.2
2018-05-29T00:13:45.768Z,1014.19
2018-05-29T00:14:26.333Z,1014.19
2018-05-29T00:15:06.915Z,1014.19
2018-05-29T00:15:47.483Z,1014.16
2018-05-29T00:16:28.048Z,1014.19
2018-05-29T00:17:08.608Z,1014.22
2018-05-29T00:17:49.151Z,1014.16
2018-05-29T00:18:29.736Z,1014.19
2018-05-29T00:19:10.346Z,1014.17
2018-05-29T00:19:50.891Z,1014.17
2018-05-29T00:20:31.450Z,1014.12
2018-05-29T00:21:12.006Z,1014.14
2018-05-29T00:21:52.576Z,1014.14
2018-05-29T00:22:33.146Z,1014.14
2018-05-29T00:23:13.736Z,1014.14
2018-05-29T00:23:54.272Z,1014.13
2018-05-29T00:24:34.826Z,1014.12
2018-05-29T00:25:15.405Z,1014.13
2018-05-29T00:25:56.008Z,1014.11
2018-05-29T00:26:36.581Z,1014.1
2018-05-29T00:27:17.155Z,1014.11
2018-05-29T00:27:57.720Z,1014.1
2018-05-29T00:28:38.280Z,1014.1
2018-05-29T00:29:18.830Z,1014.08
2018-05-29T00:29:59.392Z,1014.07
2018-05-29T00:30:39.979Z,1014.08
2018-05-29T00:31:20.551Z,1014.04
2018-05-29T00:32:01.124Z,1014.02
2018-05-29T00:32:41.698Z,1014.08
2018-05-29T00:33:22.277Z,1014.07
2018-05-29T00:34:02.867Z,1014.04
2018-05-29T00:34:43.448Z,1014.02
2018-05-29T00:35:24.020Z,1014.03
2018-05-29T00:36:04.588Z,1013.99
2018-05-29T00:36:45.156Z,1014
2018-05-29T00:37:25.730Z,1013.96
2018-05-29T00:38:06.309Z,1013.96
2018-05-29T00:38:46.866Z,1013.99
2018-05-29T00:39:27.429Z,1013.92
2018-05-29T00:40:07.990Z,1013.91
2018-05-29T00:40:48.555Z,1013.92
2018-05-29T00:41:29.131Z,1013.91
2018-05-29T00:42:09.694Z,1013.91
2018-05-29T00:42:50.247Z,1013.89
2018-05-29T00:43:30.816Z,1013.87
2018-05-29T00:44:11.389Z,1013.83
2018-05-29T00:44:51.966Z,1013.92
2018-05-29T00:45:32.519Z,1013.85
2018-05-29T00:46:13.085Z,1013.9
2018-05-29T00:46:53.645Z,1013.85
2018-05-29T00:47:34.255Z,1013.88
2018-05-29T00:48:14.846Z,1013.9
2018-05-29T00:48:55.412Z,1013.85
2018-05-29T00:49:35.962Z,1013.84
2018-05-29T00:50:16.519Z,1013.85
2018-05-29T00:50:57.066Z,1013.89
2018-05-29T00:51:37.639Z,1013.85
2018-05-29T00:52:18.206Z,1013.88
2018-05-29T00:52:58.773Z,1013.89
2018-05-29T00:53:39.330Z,1013.87
2018-05-29T00:54:19.889Z,1013.86
2018-05-29T00:55:00.464Z,1013.9
2018-05-29T00:55:41.030Z,1013.91
2018-05-29T00:56:21.601Z,1013.88
2018-05-29T00:57:02.162Z,1013.86
2018-05-29T00:57:42.738Z,1013.84
2018-05-29T00:58:23.316Z,1013.88
2018-05-29T00:59:03.872Z,1013.85
2018-05-29T00:59:44.449Z,1013.88
2018-05-29T01:00:25.029Z,1013.87
2018-05-29T01:01:05.596Z,1013.87
2018-05-29T01:01:46.174Z,1013.82
2018-05-29T01:02:26.767Z,1013.79
2018-05-29T01:03:07.289Z,1013.81
2018-05-29T01:03:47.868Z,1013.78
2018-05-29T01:04:28.445Z,1013.82
2018-05-29T01:05:09.011Z,1013.79
2018-05-29T01:05:49.581Z,1013.78
2018-05-29T01:06:30.151Z,1013.82
2018-05-29T01:07:10.723Z,1013.83
2018-05-29T01:07:51.317Z,1013.82
2018-05-29T01:08:31.950Z,1013.82
2018-05-29T01:09:12.499Z,1013.84
2018-05-29T01:09:53.124Z,1013.8
2018-05-29T01:10:33.685Z,1013.82
2018-05-29T01:11:14.236Z,1013.81
2018-05-29T01:11:54.805Z,1013.8
2018-05-29T01:12:35.426Z,1013.81
2018-05-29T01:13:15.928Z,1013.79
2018-05-29T01:13:56.501Z,1013.78
2018-05-29T01:14:37.092Z,1013.75
2018-05-29T01:15:17.662Z,1013.76
2018-05-29T01:15:58.238Z,1013.75
2018-05-29T01:16:38.799Z,1013.78
2018-05-29T01:17:19.361Z,1013.78
2018-05-29T01:17:59.906Z,1013.75
2018-05-29T01:18:40.462Z,1013.73
2018-05-29T01:19:21.049Z,1013.72
2018-05-29T01:20:01.611Z,1013.66
2018-05-29T01:20:42.188Z,1013.71
2018-05-29T01:21:22.750Z,1013.69
2018-05-29T01:22:03.318Z,1013.7
2018-05-29T01:22:43.882Z,1013.72
2018-05-29T01:23:24.447Z,1013.66
2018-05-29T01:24:05.019Z,1013.68
2018-05-29T01:24:45.584Z,1013.64
2018-05-29T01:25:26.132Z,1013.67
2018-05-29T01:26:06.700Z,1013.68
2018-05-29T01:26:47.271Z,1013.69
2018-05-29T01:27:27.840Z,1013.68
2018-05-29T01:28:08.407Z,1013.67
2018-05-29T01:28:48.981Z,1013.62
2018-05-29T01:29:29.571Z,1013.61
2018-05-29T01:30:10.148Z,1013.65
2018-05-29T01:30:50.750Z,1013.61
2018-05-29T01:31:31.292Z,1013.6
2018-05-29T01:32:11.857Z,1013.6
2018-05-29T01:32:52.430Z,1013.62
2018-05-29T01:33:32.988Z,1013.62
2018-05-29T01:34:13.569Z,1013.62
2018-05-29T01:34:54.183Z,1013.63
2018-05-29T01:35:34.697Z,1013.62
2018-05-29T01:36:15.266Z,1013.65
2018-05-29T01:36:55.816Z,1013.6
2018-05-29T01:37:37.510Z,1013.6
2018-05-29T01:38:18.298Z,1013.63
2018-05-29T01:38:59.074Z,1013.6
2018-05-29T01:39:39.805Z,1013.65
2018-05-29T01:40:20.385Z,1013.63
2018-05-29T01:41:00.945Z,1013.54
2018-05-29T01:41:41.505Z,1013.6
2018-05-29T01:42:22.075Z,1013.59
2018-05-29T01:43:02.640Z,1013.56
2018-05-29T01:43:43.188Z,1013.57
2018-05-29T01:44:23.777Z,1013.57
2018-05-29T01:45:04.344Z,1013.55
2018-05-29T01:45:44.928Z,1013.58
2018-05-29T01:46:25.542Z,1013.58
2018-05-29T01:47:06.091Z,1013.57
2018-05-29T01:47:46.654Z,1013.56
2018-05-29T01:48:27.211Z,1013.55
2018-05-29T01:49:07.797Z,1013.56
2018-05-29T01:49:48.345Z,1013.55
2018-05-29T01:50:28.905Z,1013.58
2018-05-29T01:51:09.493Z,1013.53
2018-05-29T01:51:50.053Z,1013.51
2018-05-29T01:52:30.697Z,1013.48
2018-05-29T01:53:11.286Z,1013.48
2018-05-29T01:53:51.856Z,1013.53
2018-05-29T01:54:32.377Z,1013.48
2018-05-29T01:55:12.928Z,1013.49
2018-05-29T01:55:53.524Z,1013.46
2018-05-29T01:56:34.090Z,1013.48
2018-05-29T01:57:14.661Z,1013.46
2018-05-29T01:57:55.222Z,1013.47
2018-05-29T01:58:35.784Z,1013.48
2018-05-29T01:59:16.334Z,1013.48
2018-05-29T01:59:56.897Z,1013.43
2018-05-29T02:00:37.470Z,1013.47
2018-05-29T02:01:18.026Z,1013.49
2018-05-29T02:01:58.603Z,1013.49
2018-05-29T02:02:39.173Z,1013.45
2018-05-29T02:03:19.733Z,1013.5
2018-05-29T02:04:00.299Z,1013.49
2018-05-29T02:04:40.884Z,1013.5
2018-05-29T02:05:21.452Z,1013.53
2018-05-29T02:06:02.018Z,1013.52
2018-05-29T02:06:42.577Z,1013.49
2018-05-29T02:07:23.156Z,1013.5
2018-05-29T02:08:03.714Z,1013.53
2018-05-29T02:08:44.293Z,1013.53
2018-05-29T02:09:24.865Z,1013.5
2018-05-29T02:10:05.437Z,1013.53
2018-05-29T02:10:46.003Z,1013.52
2018-05-29T02:11:26.560Z,1013.46
2018-05-29T02:12:07.141Z,1013.47
2018-05-29T02:12:47.687Z,1013.48
2018-05-29T02:13:28.257Z,1013.53
2018-05-29T02:14:08.807Z,1013.5
2018-05-29T02:14:49.374Z,1013.53
2018-05-29T02:15:29.962Z,1013.54
2018-05-29T02:16:10.502Z,1013.53
2018-05-29T02:16:51.054Z,1013.52
2018-05-29T02:17:31.632Z,1013.53
2018-05-29T02:18:12.211Z,1013.54
2018-05-29T02:18:52.779Z,1013.52
2018-05-29T02:19:33.342Z,1013.51
2018-05-29T02:20:13.927Z,1013.54
2018-05-29T02:20:54.488Z,1013.51
2018-05-29T02:21:35.059Z,1013.54
2018-05-29T02:22:15.619Z,1013.55
2018-05-29T02:22:56.193Z,1013.49
2018-05-29T02:23:36.762Z,1013.46
2018-05-29T02:24:17.311Z,1013.52
2018-05-29T02:24:57.872Z,1013.5
2018-05-29T02:25:38.431Z,1013.52
2018-05-29T02:26:18.990Z,1013.5
2018-05-29T02:26:59.556Z,1013.54
2018-05-29T02:27:40.119Z,1013.5
2018-05-29T02:28:20.685Z,1013.53
2018-05-29T02:29:01.239Z,1013.5
2018-05-29T02:29:41.801Z,1013.51
2018-05-29T02:30:22.369Z,1013.49
2018-05-29T02:31:02.955Z,1013.5
2018-05-29T02:31:43.505Z,1013.49
2018-05-29T02:32:24.076Z,1013.5
2018-05-29T02:33:04.635Z,1013.5
2018-05-29T02:33:45.203Z,1013.49
2018-05-29T02:34:25.762Z,1013.48
2018-05-29T02:35:06.324Z,1013.5
2018-05-29T02:35:46.907Z,1013.48
2018-05-29T02:36:27.463Z,1013.46
2018-05-29T02:37:08.030Z,1013.53
2018-05-29T02:37:48.603Z,1013.5
2018-05-29T02:38:29.204Z,1013.49
2018-05-29T02:39:09.759Z,1013.47
2018-05-29T02:39:50.333Z,1013.43
2018-05-29T02:40:30.895Z,1013.43
2018-05-29T02:41:11.448Z,1013.41
2018-05-29T02:41:52.028Z,1013.42
2018-05-29T02:42:32.585Z,1013.43
2018-05-29T02:43:13.146Z,1013.44
2018-05-29T02:43:53.711Z,1013.4
2018-05-29T02:44:34.287Z,1013.41
2018-05-29T02:45:14.854Z,1013.38
2018-05-29T02:45:55.419Z,1013.42
2018-05-29T02:46:35.972Z,1013.38
2018-05-29T02:47:16.543Z,1013.38
2018-05-29T02:47:57.091Z,1013.37
2018-05-29T02:48:37.659Z,1013.35
2018-05-29T02:49:18.219Z,1013.37
2018-05-29T02:49:58.769Z,1013.33
2018-05-29T02:50:39.340Z,1013.35
2018-05-29T02:51:19.905Z,1013.39
2018-05-29T02:52:00.473Z,1013.34
2018-05-29T02:52:41.062Z,1013.36
2018-05-29T02:53:21.636Z,1013.33
2018-05-29T02:54:02.176Z,1013.38
2018-05-29T02:54:42.742Z,1013.35
2018-05-29T02:55:23.305Z,1013.4
2018-05-29T02:56:03.866Z,1013.42
2018-05-29T02:56:44.424Z,1013.4
2018-05-29T02:57:25.000Z,1013.39
2018-05-29T02:58:05.552Z,1013.43
2018-05-29T02:58:46.095Z,1013.43
2018-05-29T02:59:26.657Z,1013.42
2018-05-29T03:00:07.207Z,1013.45
2018-05-29T03:00:47.754Z,1013.44
2018-05-29T03:01:28.309Z,1013.38
2018-05-29T03:02:08.887Z,1013.4
2018-05-29T03:02:49.461Z,1013.37
2018-05-29T03:03:30.088Z,1013.37
2018-05-29T03:04:10.658Z,1013.4
2018-05-29T03:04:51.246Z,1013.37
2018-05-29T03:05:31.814Z,1013.38
2018-05-29T03:06:12.368Z,1013.4
2018-05-29T03:06:52.957Z,1013.43
2018-05-29T03:07:33.527Z,1013.4
2018-05-29T03:08:14.085Z,1013.41
2018-05-29T03:08:54.681Z,1013.39
2018-05-29T03:09:35.245Z,1013.37
2018-05-29T03:10:15.849Z,1013.36
2018-05-29T03:10:56.388Z,1013.36
2018-05-29T03:11:36.934Z,1013.38
2018-05-29T03:12:17.501Z,1013.35
2018-05-29T03:12:58.055Z,1013.36
2018-05-29T03:13:38.630Z,1013.35
2018-05-29T03:14:19.201Z,1013.31
2018-05-29T03:14:59.754Z,1013.35
2018-05-29T03:15:40.317Z,1013.28
2018-05-29T03:16:20.886Z,1013.32
2018-05-29T03:17:01.456Z,1013.34
2018-05-29T03:17:42.018Z,1013.3
2018-05-29T03:18:22.596Z,1013.28
2018-05-29T03:19:03.213Z,1013.27
2018-05-29T03:19:43.809Z,1013.28
2018-05-29T03:20:24.409Z,1013.29
2018-05-29T03:21:04.963Z,1013.25
2018-05-29T03:21:45.525Z,1013.27
2018-05-29T03:22:26.083Z,1013.3
2018-05-29T03:23:06.640Z,1013.29
2018-05-29T03:23:47.191Z,1013.32
2018-05-29T03:24:27.765Z,1013.31
2018-05-29T03:25:08.350Z,1013.33
2018-05-29T03:25:48.909Z,1013.3
2018-05-29T03:26:29.480Z,1013.34
2018-05-29T03:27:10.043Z,1013.34
2018-05-29T03:27:50.600Z,1013.34
2018-05-29T03:28:31.153Z,1013.36
2018-05-29T03:29:11.733Z,1013.39
2018-05-29T03:29:52.306Z,1013.39
2018-05-29T03:30:32.863Z,1013.37
2018-05-29T03:31:13.428Z,1013.37
2018-05-29T03:31:54.011Z,1013.38
2018-05-29T03:32:34.588Z,1013.36
2018-05-29T03:33:15.144Z,1013.33
2018-05-29T03:33:55.706Z,1013.37
2018-05-29T03:34:36.258Z,1013.38
2018-05-29T03:35:16.822Z,1013.35
2018-05-29T03:35:57.373Z,1013.34
2018-05-29T03:36:38.026Z,1013.34
2018-05-29T03:37:18.588Z,1013.33
2018-05-29T03:37:59.178Z,1013.32
2018-05-29T03:38:39.738Z,1013.39
2018-05-29T03:39:20.311Z,1013.33
2018-05-29T03:40:00.873Z,1013.3
2018-05-29T03:40:41.431Z,1013.33
2018-05-29T03:41:22.005Z,1013.34
2018-05-29T03:42:02.565Z,1013.32
2018-05-29T03:42:43.118Z,1013.3
2018-05-29T03:43:23.680Z,1013.32
2018-05-29T03:44:04.251Z,1013.34
2018-05-29T03:44:44.807Z,1013.32
2018-05-29T03:45:25.382Z,1013.37
2018-05-29T03:46:05.937Z,1013.35
2018-05-29T03:46:46.502Z,1013.34
2018-05-29T03:47:27.065Z,1013.37
2018-05-29T03:48:07.629Z,1013.35
2018-05-29T03:48:48.198Z,1013.36
2018-05-29T03:49:28.759Z,1013.3
2018-05-29T03:50:09.321Z,1013.28
2018-05-29T03:50:49.896Z,1013.3
2018-05-29T03:51:30.469Z,1013.29
2018-05-29T03:52:11.064Z,1013.22
2018-05-29T03:52:51.763Z,1013.24
2018-05-29T03:53:32.325Z,1013.26
2018-05-29T03:54:12.881Z,1013.25
2018-05-29T03:54:53.484Z,1013.22
2018-05-29T03:55:34.052Z,1013.25
2018-05-29T03:56:14.617Z,1013.21
2018-05-29T03:56:55.177Z,1013.21
2018-05-29T03:57:35.738Z,1013.22
2018-05-29T03:58:16.287Z,1013.21
2018-05-29T03:58:56.878Z,1013.22
2018-05-29T03:59:37.438Z,1013.21
2018-05-29T04:00:18.014Z,1013.22
2018-05-29T04:00:58.575Z,1013.24
2018-05-29T04:01:39.121Z,1013.21
2018-05-29T04:02:19.691Z,1013.2
2018-05-29T04:03:00.251Z,1013.19
2018-05-29T04:03:40.803Z,1013.22
2018-05-29T04:04:21.377Z,1013.2
2018-05-29T04:05:01.938Z,1013.18
2018-05-29T04:05:42.495Z,1013.23
2018-05-29T04:06:23.084Z,1013.24
2018-05-29T04:07:03.644Z,1013.2
2018-05-29T04:07:44.230Z,1013.23
2018-05-29T04:08:24.793Z,1013.26
2018-05-29T04:09:05.371Z,1013.22
2018-05-29T04:09:45.935Z,1013.18
2018-05-29T04:10:26.486Z,1013.22
2018-05-29T04:11:07.060Z,1013.25
2018-05-29T04:11:47.644Z,1013.26
2018-05-29T04:12:28.203Z,1013.27
2018-05-29T04:13:08.780Z,1013.25
2018-05-29T04:13:49.340Z,1013.24
2018-05-29T04:14:29.889Z,1013.28
2018-05-29T04:15:10.467Z,1013.23
2018-05-29T04:15:51.099Z,1013.24
2018-05-29T04:16:31.591Z,1013.27
2018-05-29T04:17:12.168Z,1013.28
2018-05-29T04:17:52.751Z,1013.3
2018-05-29T04:18:33.335Z,1013.28
2018-05-29T04:19:13.890Z,1013.28
2018-05-29T04:19:54.458Z,1013.28
2018-05-29T04:20:35.011Z,1013.34
2018-05-29T04:21:15.593Z,1013.3
2018-05-29T04:21:56.147Z,1013.29
2018-05-29T04:22:36.699Z,1013.33
2018-05-29T04:23:17.244Z,1013.29
2018-05-29T04:23:57.802Z,1013.32
2018-05-29T04:24:38.372Z,1013.33
2018-05-29T04:25:18.930Z,1013.33
2018-05-29T04:25:59.496Z,1013.33
2018-05-29T04:26:40.069Z,1013.32
2018-05-29T04:27:20.649Z,1013.28
2018-05-29T04:28:01.211Z,1013.3
2018-05-29T04:28:41.771Z,1013.32
2018-05-29T04:29:22.327Z,1013.36
2018-05-29T04:30:02.885Z,1013.34
2018-05-29T04:30:43.433Z,1013.32
2018-05-29T04:31:24.019Z,1013.37
2018-05-29T04:32:04.581Z,1013.32
2018-05-29T04:32:45.187Z,1013.35
2018-05-29T04:33:25.739Z,1013.34
2018-05-29T04:34:06.308Z,1013.36
2018-05-29T04:34:46.890Z,1013.33
2018-05-29T04:35:27.452Z,1013.34
2018-05-29T04:36:08.034Z,1013.37
2018-05-29T04:36:48.612Z,1013.4
2018-05-29T04:37:29.192Z,1013.33
2018-05-29T04:38:09.757Z,1013.38
2018-05-29T04:38:50.317Z,1013.36
2018-05-29T04:39:30.873Z,1013.34
2018-05-29T04:40:11.425Z,1013.33
2018-05-29T04:40:52.005Z,1013.37
2018-05-29T04:41:32.596Z,1013.38
2018-05-29T04:42:13.174Z,1013.4
2018-05-29T04:42:53.773Z,1013.39
2018-05-29T04:43:34.334Z,1013.39
2018-05-29T04:44:14.912Z,1013.35
2018-05-29T04:44:55.479Z,1013.38
2018-05-29T04:45:36.058Z,1013.41
2018-05-29T04:46:16.617Z,1013.4
2018-05-29T04:46:57.210Z,1013.42
2018-05-29T04:47:37.764Z,1013.4
2018-05-29T04:48:18.338Z,1013.41
2018-05-29T04:48:58.889Z,1013.36
2018-05-29T04:49:39.511Z,1013.43
2018-05-29T04:50:20.029Z,1013.43
2018-05-29T04:51:00.592Z,1013.4
2018-05-29T04:51:41.162Z,1013.41
2018-05-29T04:52:21.725Z,1013.42
2018-05-29T04:53:02.286Z,1013.41
2018-05-29T04:53:42.885Z,1013.44
2018-05-29T04:54:23.440Z,1013.4
2018-05-29T04:55:03.992Z,1013.38
2018-05-29T04:55:44.543Z,1013.43
2018-05-29T04:56:25.143Z,1013.43
2018-05-29T04:57:05.708Z,1013.4
2018-05-29T04:57:46.274Z,1013.41
2018-05-29T04:58:26.915Z,1013.42
2018-05-29T04:59:07.466Z,1013.39
2018-05-29T04:59:48.042Z,1013.41
2018-05-29T05:00:28.618Z,1013.43
2018-05-29T05:01:09.196Z,1013.4
2018-05-29T05:01:49.757Z,1013.43
2018-05-29T05:02:30.384Z,1013.43
2018-05-29T05:03:10.941Z,1013.43
2018-05-29T05:03:51.654Z,1013.42
2018-05-29T05:04:32.239Z,1013.45
2018-05-29T05:05:12.786Z,1013.44
2018-05-29T05:05:53.348Z,1013.48
2018-05-29T05:06:33.962Z,1013.43
2018-05-29T05:07:14.521Z,1013.45
2018-05-29T05:07:55.070Z,1013.44
2018-05-29T05:08:35.633Z,1013.44
2018-05-29T05:09:16.196Z,1013.44
2018-05-29T05:09:56.743Z,1013.46
2018-05-29T05:10:37.304Z,1013.42
2018-05-29T05:11:17.873Z,1013.41
2018-05-29T05:11:58.431Z,1013.49
2018-05-29T05:12:38.988Z,1013.44
2018-05-29T05:13:19.553Z,1013.46
2018-05-29T05:14:00.130Z,1013.42
2018-05-29T05:14:40.700Z,1013.44
2018-05-29T05:15:21.354Z,1013.47
2018-05-29T05:16:01.904Z,1013.46
2018-05-29T05:16:42.491Z,1013.45
2018-05-29T05:17:23.071Z,1013.44
2018-05-29T05:18:03.630Z,1013.45
2018-05-29T05:18:44.203Z,1013.48
2018-05-29T05:19:24.769Z,1013.49
2018-05-29T05:20:05.432Z,1013.48
2018-05-29T05:20:46.002Z,1013.48
2018-05-29T05:21:26.610Z,1013.47
2018-05-29T05:22:07.176Z,1013.45
2018-05-29T05:22:47.726Z,1013.5
2018-05-29T05:23:28.329Z,1013.47
2018-05-29T05:24:08.896Z,1013.48
2018-05-29T05:24:49.475Z,1013.49
2018-05-29T05:25:30.029Z,1013.46
2018-05-29T05:26:10.600Z,1013.5
2018-05-29T05:26:51.166Z,1013.59
2018-05-29T05:27:31.724Z,1013.62
2018-05-29T05:28:12.293Z,1013.61
2018-05-29T05:28:52.869Z,1013.58
2018-05-29T05:29:33.422Z,1013.69
2018-05-29T05:30:13.991Z,1013.72
2018-05-29T05:30:54.569Z,1013.75
2018-05-29T05:31:35.148Z,1013.77
2018-05-29T05:32:15.700Z,1013.79
2018-05-29T05:32:56.285Z,1013.88
2018-05-29T05:33:36.860Z,1013.87
2018-05-29T05:34:17.425Z,1013.88
2018-05-29T05:34:58.069Z,1013.91
2018-05-29T05:35:38.630Z,1013.95
2018-05-29T05:36:19.213Z,1013.98
2018-05-29T05:36:59.789Z,1014
2018-05-29T05:37:40.347Z,1014.03
2018-05-29T05:38:20.919Z,1014.08
2018-05-29T05:39:01.477Z,1014.04
2018-05-29T05:39:42.082Z,1014.06
2018-05-29T05:40:22.658Z,1014.07
2018-05-29T05:41:03.249Z,1014.15
2018-05-29T05:41:43.823Z,1014.16
2018-05-29T05:42:24.376Z,1014.21
2018-05-29T05:43:04.933Z,1014.23
2018-05-29T05:43:45.560Z,1014.27
2018-05-29T05:44:26.162Z,1014.32
2018-05-29T05:45:06.738Z,1014.39
2018-05-29T05:45:47.296Z,1014.42
2018-05-29T05:46:27.825Z,1014.45
2018-05-29T05:47:08.396Z,1014.56
2018-05-29T05:47:48.950Z,1014.59
2018-05-29T05:48:29.500Z,1014.57
2018-05-29T05:49:10.090Z,1014.66
2018-05-29T05:49:50.661Z,1014.74
2018-05-29T05:50:31.232Z,1014.82
2018-05-29T05:51:11.797Z,1014.94
2018-05-29T05:51:52.386Z,1015
2018-05-29T05:52:32.971Z,1014.99
2018-05-29T05:53:13.559Z,1014.97
2018-05-29T05:53:54.151Z,1015.01
2018-05-29T05:54:34.720Z,1015.23
2018-05-29T05:55:15.288Z,1015.23
2018-05-29T05:55:55.862Z,1015.3
2018-05-29T05:56:36.463Z,1015.37
2018-05-29T05:57:17.040Z,1015.32
2018-05-29T05:57:57.595Z,1015.41
2018-05-29T05:58:38.173Z,1015.41
2018-05-29T05:59:18.780Z,1015.43
2018-05-29T05:59:59.345Z,1015.39
2018-05-29T06:00:39.902Z,1015.39
2018-05-29T06:01:20.467Z,1015.28
2018-05-29T06:02:01.024Z,1015.22
2018-05-29T06:02:41.603Z,1015.14
2018-05-29T06:03:22.172Z,1015.06
2018-05-29T06:04:02.753Z,1014.87
2018-05-29T06:04:43.323Z,1014.65
2018-05-29T06:05:23.920Z,1014.59
2018-05-29T06:06:04.845Z,1014.74
2018-05-29T06:06:45.612Z,1014.73
2018-05-29T06:07:26.408Z,1014.73
2018-05-29T06:08:07.061Z,1014.68
2018-05-29T06:08:48.547Z,1014.61
2018-05-29T06:09:29.260Z,1014.51
2018-05-29T06:10:10.085Z,1014.42
2018-05-29T06:10:51.003Z,1014.42
2018-05-29T06:11:32.428Z,1014.44
2018-05-29T06:12:13.277Z,1014.57
2018-05-29T06:12:54.030Z,1014.67
2018-05-29T06:13:34.605Z,1014.76
2018-05-29T06:14:15.183Z,1014.78
2018-05-29T06:14:55.878Z,1014.73
2018-05-29T06:15:36.646Z,1014.63
2018-05-29T06:16:17.414Z,1014.72
2018-05-29T06:16:58.148Z,1014.71
2018-05-29T06:17:38.823Z,1014.66
2018-05-29T06:18:19.376Z,1014.57
2018-05-29T06:19:00.051Z,1014.53
2018-05-29T06:19:41.795Z,1014.47
2018-05-29T06:20:22.801Z,1014.51
2018-05-29T06:21:03.522Z,1014.59
2018-05-29T06:21:44.082Z,1014.64
2018-05-29T06:22:24.651Z,1014.66
2018-05-29T06:23:05.218Z,1014.57
2018-05-29T06:23:45.817Z,1014.57
2018-05-29T06:24:26.382Z,1014.75
2018-05-29T06:25:06.964Z,1014.71
2018-05-29T06:25:47.627Z,1014.74
2018-05-29T06:26:28.216Z,1014.84
2018-05-29T06:27:08.775Z,1014.93
2018-05-29T06:27:49.352Z,1015.06
2018-05-29T06:28:29.907Z,1015.12
2018-05-29T06:29:10.482Z,1015.13
2018-05-29T06:29:51.043Z,1015.08
2018-05-29T06:30:31.690Z,1015.09
2018-05-29T06:31:12.630Z,1015.2
2018-05-29T06:31:53.595Z,1015.35
2018-05-29T06:32:34.692Z,1015.36
2018-05-29T06:33:15.286Z,1015.31
2018-05-29T06:33:55.861Z,1015.26
2018-05-29T06:34:36.443Z,1015.2
2018-05-29T06:35:17.013Z,1015
2018-05-29T06:35:57.564Z,1014.87
2018-05-29T06:36:38.128Z,1014.84
2018-05-29T06:37:18.724Z,1014.78
2018-05-29T06:37:59.269Z,1014.63
2018-05-29T06:38:39.877Z,1014.43
2018-05-29T06:39:20.395Z,1014.19
2018-05-29T06:40:01.200Z,1014
2018-05-29T06:40:41.753Z,1013.97
2018-05-29T06:41:22.350Z,1013.93
2018-05-29T06:42:02.918Z,1013.93
2018-05-29T06:42:43.506Z,1013.92
2018-05-29T06:43:24.057Z,1013.93
2018-05-29T06:44:04.617Z,1013.94
2018-05-29T06:44:45.323Z,1013.9
2018-05-29T06:45:25.928Z,1013.91
2018-05-29T06:46:06.524Z,1013.96
2018-05-29T06:46:51.664Z,1013.92
2018-05-29T06:47:32.304Z,1014.03
2018-05-29T06:48:15.008Z,1014.23
2018-05-29T06:48:55.960Z,1014.46
2018-05-29T06:49:36.521Z,1014.47
2018-05-29T06:50:17.080Z,1014.22
2018-05-29T06:50:57.677Z,1014.05
2018-05-29T06:51:38.702Z,1013.92
2018-05-29T06:52:19.661Z,1013.86
2018-05-29T06:53:00.467Z,1013.85
2018-05-29T06:53:41.017Z,1013.82
2018-05-29T06:54:21.713Z,1013.84
2018-05-29T06:55:02.288Z,1013.83
2018-05-29T06:55:42.866Z,1013.81
2018-05-29T06:56:23.522Z,1013.83
2018-05-29T06:57:04.345Z,1013.81
2018-05-29T06:57:45.544Z,1013.78
2018-05-29T06:58:26.116Z,1013.84
2018-05-29T06:59:06.929Z,1013.82
2018-05-29T06:59:47.755Z,1013.8
2018-05-29T07:00:28.469Z,1013.76
2018-05-29T07:01:09.166Z,1013.77
2018-05-29T07:01:49.997Z,1013.79
2018-05-29T07:02:30.699Z,1013.74
2018-05-29T07:03:11.295Z,1013.78
2018-05-29T07:03:51.890Z,1013.74
2018-05-29T07:05:15.477Z,1013.75
2018-05-29T07:06:51.395Z,1013.97
2018-05-29T07:07:31.943Z,1014
2018-05-29T07:08:12.530Z,1013.91
2018-05-29T07:08:53.096Z,1013.83
2018-05-29T07:09:33.659Z,1013.71
2018-05-29T07:10:14.245Z,1013.68
2018-05-29T07:10:54.803Z,1013.66
2018-05-29T07:11:35.419Z,1013.64
2018-05-29T07:12:16.053Z,1013.68
2018-05-29T07:12:56.625Z,1013.67
2018-05-29T07:13:37.353Z,1013.69
2018-05-29T07:14:17.940Z,1013.65
2018-05-29T07:14:58.508Z,1013.63
2018-05-29T07:15:39.078Z,1013.64
2018-05-29T07:16:19.623Z,1013.67
2018-05-29T07:17:00.230Z,1013.65
2018-05-29T07:17:40.788Z,1013.65
2018-05-29T07:18:21.366Z,1013.67
2018-05-29T07:19:02.251Z,1013.71
2018-05-29T07:19:42.882Z,1013.67
2018-05-29T07:20:23.462Z,1013.66
2018-05-29T07:21:04.283Z,1013.68
2018-05-29T07:21:44.865Z,1013.67
2018-05-29T07:22:26.260Z,1013.7
2018-05-29T07:23:06.837Z,1013.66
2018-05-29T07:23:47.430Z,1013.69
2018-05-29T07:24:27.984Z,1013.65
2018-05-29T07:25:08.597Z,1013.64
2018-05-29T07:25:49.180Z,1013.61
2018-05-29T07:26:29.743Z,1013.59
2018-05-29T07:27:10.344Z,1013.52
2018-05-29T07:27:50.924Z,1013.53
2018-05-29T07:28:31.547Z,1013.45
2018-05-29T07:29:12.118Z,1013.45
2018-05-29T07:29:52.842Z,1013.45
2018-05-29T07:30:33.932Z,1013.44
2018-05-29T07:31:14.491Z,1013.46
2018-05-29T07:31:55.062Z,1013.44
2018-05-29T07:32:35.629Z,1013.45
2018-05-29T07:33:16.217Z,1013.43
2018-05-29T07:33:56.803Z,1013.38
2018-05-29T07:34:37.549Z,1013.35
2018-05-29T07:35:18.140Z,1013.36
2018-05-29T07:35:58.893Z,1013.39
2018-05-29T07:36:39.872Z,1013.34
2018-05-29T07:37:20.724Z,1013.32
2018-05-29T07:38:01.555Z,1013.37
2018-05-29T07:38:42.474Z,1013.35
2018-05-29T07:39:23.267Z,1013.31
2018-05-29T07:40:03.983Z,1013.33
2018-05-29T07:40:44.652Z,1013.28
2018-05-29T07:41:25.243Z,1013.31
2018-05-29T07:42:05.908Z,1013.27
2018-05-29T07:42:46.534Z,1013.27
2018-05-29T07:43:27.071Z,1013.26
2018-05-29T07:44:07.727Z,1013.27
2018-05-29T07:44:48.364Z,1013.22
2018-05-29T07:45:28.966Z,1013.2
2018-05-29T07:46:09.652Z,1013.27
2018-05-29T07:46:50.224Z,1013.18
2018-05-29T07:47:30.778Z,1013.21
2018-05-29T07:48:11.511Z,1013.22
2018-05-29T07:48:52.408Z,1013.24
2018-05-29T07:49:33.023Z,1013.19
2018-05-29T07:50:13.690Z,1013.19
2018-05-29T07:50:54.262Z,1013.2
2018-05-29T07:51:35.008Z,1013.1
2018-05-29T07:52:15.802Z,1013.06
2018-05-29T07:52:56.612Z,1013.11
2018-05-29T07:53:37.551Z,1013.09
2018-05-29T07:54:18.135Z,1013.1
2018-05-29T07:54:58.713Z,1013.11
2018-05-29T07:55:39.291Z,1013.06
2018-05-29T07:56:19.900Z,1013.02
2018-05-29T07:57:00.611Z,1013.03
2018-05-29T07:57:41.702Z,1013.01
2018-05-29T07:58:22.474Z,1012.97
2018-05-29T07:59:03.211Z,1013.01
2018-05-29T07:59:43.868Z,1013.01
2018-05-29T08:00:24.691Z,1012.96
2018-05-29T08:01:05.765Z,1012.98
2018-05-29T08:01:46.760Z,1012.97
2018-05-29T08:02:27.441Z,1012.93
2018-05-29T08:03:08.416Z,1012.96
2018-05-29T08:03:49.089Z,1012.97
2018-05-29T08:04:29.789Z,1012.96
2018-05-29T08:05:11.721Z,1012.9
2018-05-29T08:05:52.717Z,1012.91
2018-05-29T08:06:33.493Z,1012.92
2018-05-29T08:07:14.368Z,1012.94
2018-05-29T08:07:55.020Z,1012.85
2018-05-29T08:08:35.583Z,1012.86
2018-05-29T08:09:16.145Z,1012.86
2018-05-29T08:09:56.722Z,1012.91
2018-05-29T08:10:37.353Z,1012.86
2018-05-29T08:11:17.907Z,1012.91
2018-05-29T08:11:58.590Z,1012.88
2018-05-29T08:12:39.148Z,1012.89
2018-05-29T08:13:19.714Z,1012.85
2018-05-29T08:14:00.292Z,1012.85
2018-05-29T08:14:40.854Z,1012.85